Time;durP1;ratioP1;P1;durP2;ratioP2;P2;SDS_P1;SDS_P2;PMS_P1;PMS_P2;Temp;Humidity;BMP_temperature;BMP_pressure;BME280_temperature;BME280_humidity;BME280_pressure;Samples;Min_cycle;Max_cycle;Signal;HPM_P1;HPM_P2
2022/03/11 00:00:20;;;;;;;25.23;17.90;;;5.30;73.00;;;;;;5010818;28;20034;-44
2022/03/11 00:02:47;;;;;;;23.80;18.08;;;5.20;73.10;;;;;;5008806;28;20072;-44
2022/03/11 00:05:14;;;;;;;23.10;17.08;;;5.20;73.20;;;;;;4993413;28;20033;-45
2022/03/11 00:07:42;;;;;;;23.73;19.10;;;5.10;73.30;;;;;;4993790;28;20176;-44
2022/03/11 00:10:09;;;;;;;24.73;17.67;;;5.10;73.40;;;;;;5022555;28;20057;-43
2022/03/11 00:12:40;;;;;;;26.60;19.15;;;5.10;73.10;;;;;;5030377;28;20116;-46
2022/03/11 00:15:08;;;;;;;25.42;18.35;;;5.10;72.90;;;;;;5013257;28;20033;-43
2022/03/11 00:17:35;;;;;;;23.67;17.52;;;5.10;72.90;;;;;;5030536;28;20493;-44
2022/03/11 00:20:03;;;;;;;26.75;17.90;;;5.00;73.00;;;;;;5030446;28;20092;-46
2022/03/11 00:22:30;;;;;;;25.08;17.80;;;5.00;73.00;;;;;;5012324;28;20116;-46
2022/03/11 00:24:57;;;;;;;23.42;17.52;;;4.90;73.00;;;;;;5029584;28;20037;-44
2022/03/11 00:27:25;;;;;;;30.30;18.60;;;4.90;72.90;;;;;;5030240;28;20072;-45
2022/03/11 00:29:53;;;;;;;22.77;16.98;;;4.90;72.80;;;;;;5030040;28;20024;-46
2022/03/11 00:32:20;;;;;;;27.45;17.98;;;4.90;72.70;;;;;;5029588;28;20559;-44
2022/03/11 00:34:47;;;;;;;26.92;17.83;;;4.90;72.70;;;;;;5030430;28;20493;-44
2022/03/11 00:37:14;;;;;;;24.48;17.85;;;4.80;72.70;;;;;;5030059;28;20029;-44
2022/03/11 00:39:41;;;;;;;24.25;17.27;;;4.80;72.60;;;;;;5013090;28;20074;-46
2022/03/11 00:42:09;;;;;;;24.02;16.98;;;4.80;72.60;;;;;;5030165;28;20109;-45
2022/03/11 00:44:39;;;;;;;23.48;17.75;;;4.70;72.30;;;;;;5012549;28;20370;-44
2022/03/11 00:47:09;;;;;;;27.08;18.77;;;4.80;72.10;;;;;;5030444;28;20115;-44
2022/03/11 00:49:40;;;;;;;26.23;17.75;;;4.70;72.00;;;;;;5029864;28;20132;-43
2022/03/11 00:52:08;;;;;;;21.33;17.17;;;4.60;71.80;;;;;;5030039;28;20502;-43
2022/03/11 00:54:33;;;;;;;25.30;19.30;;;4.70;71.70;;;;;;5029758;28;20037;-44
2022/03/11 00:57:00;;;;;;;23.25;16.63;;;4.60;71.80;;;;;;5029797;28;20039;-45
2022/03/11 00:59:27;;;;;;;28.70;16.90;;;4.60;71.60;;;;;;5029081;28;20061;-45
2022/03/11 01:01:53;;;;;;;23.48;17.55;;;4.60;71.40;;;;;;5029558;28;20132;-46
2022/03/11 01:04:21;;;;;;;25.98;18.70;;;4.60;71.40;;;;;;5029822;28;20464;-45
2022/03/11 01:06:51;;;;;;;26.27;17.52;;;4.50;71.70;;;;;;5030030;28;20350;-45
2022/03/11 01:09:20;;;;;;;21.40;16.02;;;4.50;71.40;;;;;;5029489;28;20045;-44
2022/03/11 01:11:48;;;;;;;20.77;15.93;;;4.50;71.10;;;;;;5029548;28;20033;-45
2022/03/11 01:14:16;;;;;;;21.48;16.05;;;4.40;71.00;;;;;;5029765;28;20036;-47
2022/03/11 01:16:45;;;;;;;20.77;15.80;;;4.40;71.10;;;;;;5029858;28;20104;-44
2022/03/11 01:19:13;;;;;;;22.52;14.68;;;4.40;71.00;;;;;;5029403;28;20041;-45
2022/03/11 01:21:39;;;;;;;23.00;17.07;;;4.40;70.80;;;;;;5029748;28;20050;-46
2022/03/11 01:24:09;;;;;;;23.05;16.80;;;4.40;70.60;;;;;;5029200;28;20036;-45
2022/03/11 01:26:36;;;;;;;20.42;15.05;;;4.30;70.50;;;;;;5012219;28;20112;-44
2022/03/11 01:29:04;;;;;;;21.70;17.02;;;4.30;70.50;;;;;;5029525;28;20355;-44
2022/03/11 01:31:31;;;;;;;21.90;15.23;;;4.20;70.40;;;;;;5029405;28;20120;-43
2022/03/11 01:33:59;;;;;;;22.30;15.95;;;4.20;70.50;;;;;;5029149;28;20077;-45
2022/03/11 01:36:27;;;;;;;21.63;15.02;;;4.20;70.60;;;;;;5029603;28;20042;-45
2022/03/11 01:38:56;;;;;;;20.95;15.40;;;4.10;70.30;;;;;;4995816;28;20091;-43
2022/03/11 01:41:24;;;;;;;19.67;14.10;;;4.10;69.70;;;;;;5029483;28;20025;-45
2022/03/11 01:44:10;;;;;;;17.90;13.63;;;4.10;69.60;;;;;;5023189;28;20052;-44
2022/03/11 01:46:38;;;;;;;17.70;13.60;;;4.10;69.30;;;;;;5011710;28;20132;-44
2022/03/11 01:49:12;;;;;;;18.47;13.77;;;4.10;69.20;;;;;;5011831;28;20056;-44
2022/03/11 01:51:44;;;;;;;21.77;14.00;;;4.10;68.90;;;;;;5028265;28;20079;-45
2022/03/11 01:54:11;;;;;;;19.75;13.82;;;4.00;69.10;;;;;;4995997;28;20113;-45
2022/03/11 01:56:38;;;;;;;18.05;13.77;;;3.90;69.00;;;;;;5031503;28;20088;-43
2022/03/11 01:59:08;;;;;;;19.15;13.45;;;3.90;69.10;;;;;;5015502;28;20115;-45
2022/03/11 02:01:35;;;;;;;19.00;13.10;;;3.90;69.20;;;;;;5014906;28;20041;-43
2022/03/11 02:04:01;;;;;;;18.23;12.75;;;3.90;69.10;;;;;;5009856;28;20050;-43
2022/03/11 02:06:28;;;;;;;23.58;14.10;;;3.90;69.00;;;;;;4999287;28;20080;-44
2022/03/11 02:09:00;;;;;;;20.00;13.88;;;3.80;69.00;;;;;;5033185;28;20431;-43
2022/03/11 02:11:27;;;;;;;19.40;14.68;;;3.80;68.50;;;;;;5015341;28;20033;-44
2022/03/11 02:13:58;;;;;;;16.90;12.40;;;3.80;68.50;;;;;;5015048;28;20048;-43
2022/03/11 02:16:42;;;;;;;19.35;13.95;;;3.80;68.20;;;;;;4999751;28;20034;-43
2022/03/11 02:19:10;;;;;;;20.27;13.68;;;3.70;68.20;;;;;;5032382;28;20065;-44
2022/03/11 02:21:47;;;;;;;17.77;14.02;;;3.70;68.10;;;;;;5032731;28;20354;-44
2022/03/11 02:24:16;;;;;;;16.15;12.82;;;3.70;68.00;;;;;;5015858;28;20408;-44
2022/03/11 02:26:43;;;;;;;19.65;13.60;;;3.70;68.00;;;;;;5015180;28;20033;-43
2022/03/11 02:29:10;;;;;;;19.08;12.45;;;3.70;68.00;;;;;;4994107;28;20058;-45
2022/03/11 02:31:38;;;;;;;20.25;14.07;;;3.60;67.90;;;;;;5012996;28;20080;-44
2022/03/11 02:34:08;;;;;;;19.38;12.50;;;3.60;67.90;;;;;;5031744;28;20497;-44
2022/03/11 02:36:36;;;;;;;18.65;13.00;;;3.60;67.80;;;;;;5032639;28;20033;-46
2022/03/11 02:39:01;;;;;;;20.73;14.45;;;3.60;67.50;;;;;;5032352;28;20029;-44
2022/03/11 02:41:28;;;;;;;21.17;13.13;;;3.50;67.60;;;;;;5014981;28;20493;-43
2022/03/11 02:43:55;;;;;;;20.08;13.10;;;3.50;67.60;;;;;;5032371;28;20037;-47
2022/03/11 02:46:21;;;;;;;19.15;13.18;;;3.50;67.80;;;;;;5014984;28;20060;-48
2022/03/11 02:48:48;;;;;;;19.73;15.10;;;3.40;67.90;;;;;;5014752;28;20068;-44
2022/03/11 02:51:17;;;;;;;20.50;13.45;;;3.40;67.90;;;;;;5032483;28;20040;-44
2022/03/11 02:53:46;;;;;;;18.90;12.50;;;3.40;67.80;;;;;;5014725;28;20022;-44
2022/03/11 02:56:13;;;;;;;17.98;12.57;;;3.40;67.80;;;;;;5032758;28;20030;-44
2022/03/11 02:58:40;;;;;;;18.65;12.88;;;3.40;67.90;;;;;;5031993;28;20053;-44
2022/03/11 03:01:08;;;;;;;20.55;12.75;;;3.40;67.90;;;;;;5014791;28;20065;-45
2022/03/11 03:03:39;;;;;;;20.05;13.98;;;3.40;68.30;;;;;;5031662;28;20029;-44
2022/03/11 03:06:07;;;;;;;17.40;12.50;;;3.30;68.60;;;;;;5031696;28;20455;-45
2022/03/11 03:08:35;;;;;;;17.80;12.23;;;3.20;69.00;;;;;;5030818;28;20125;-44
2022/03/11 03:11:02;;;;;;;18.52;13.23;;;3.30;68.80;;;;;;5011221;28;20054;-44
2022/03/11 03:13:30;;;;;;;16.67;12.00;;;3.20;69.00;;;;;;5029835;28;20060;-45
2022/03/11 03:15:57;;;;;;;18.00;12.55;;;3.20;69.00;;;;;;5031996;28;20026;-45
2022/03/11 03:18:24;;;;;;;19.73;13.13;;;3.20;69.00;;;;;;5013957;28;20056;-44
2022/03/11 03:20:52;;;;;;;19.13;12.57;;;3.20;69.00;;;;;;5013943;28;20033;-44
2022/03/11 03:23:20;;;;;;;18.48;12.38;;;3.10;68.90;;;;;;5031608;28;20083;-44
2022/03/11 03:25:47;;;;;;;18.95;12.80;;;3.10;68.80;;;;;;5014233;28;20061;-43
2022/03/11 03:28:13;;;;;;;18.50;12.70;;;3.10;68.80;;;;;;5014061;28;20398;-45
2022/03/11 03:30:40;;;;;;;24.27;13.60;;;3.10;68.80;;;;;;5014268;28;20021;-45
2022/03/11 03:33:12;;;;;;;20.33;13.70;;;3.10;69.00;;;;;;5030814;28;20025;-46
2022/03/11 03:35:40;;;;;;;17.95;12.80;;;3.00;68.90;;;;;;4997746;28;20167;-45
2022/03/11 03:38:09;;;;;;;18.58;12.73;;;3.00;69.20;;;;;;5013707;28;20033;-45
2022/03/11 03:40:36;;;;;;;19.33;13.07;;;3.00;69.30;;;;;;5030749;28;20036;-48
2022/03/11 03:43:07;;;;;;;19.02;11.88;;;2.90;69.00;;;;;;5030994;28;20030;-46
2022/03/11 03:45:36;;;;;;;19.45;13.50;;;2.90;69.10;;;;;;5030952;28;20032;-43
2022/03/11 03:48:03;;;;;;;15.57;12.18;;;2.90;68.90;;;;;;5030674;28;20021;-44
2022/03/11 03:50:32;;;;;;;18.88;13.35;;;2.90;69.00;;;;;;5031075;28;20552;-48
2022/03/11 03:53:00;;;;;;;18.65;12.75;;;2.90;68.70;;;;;;5030799;28;20097;-43
2022/03/11 03:55:28;;;;;;;18.50;13.30;;;2.90;68.90;;;;;;5030967;28;20033;-44
2022/03/11 03:57:53;;;;;;;20.58;12.80;;;2.90;68.90;;;;;;5013567;28;20373;-44
2022/03/11 04:00:26;;;;;;;17.88;12.75;;;2.80;69.10;;;;;;5031020;28;20037;-45
2022/03/11 04:02:52;;;;;;;17.42;12.82;;;2.80;69.20;;;;;;5014595;28;20033;-44
2022/03/11 04:05:21;;;;;;;20.45;12.85;;;2.80;69.00;;;;;;4997091;28;20036;-45
2022/03/11 04:07:48;;;;;;;16.77;12.50;;;2.80;69.00;;;;;;5030171;28;20034;-44
2022/03/11 04:10:18;;;;;;;18.50;12.18;;;2.80;69.00;;;;;;5013359;28;20471;-47
2022/03/11 04:12:46;;;;;;;20.35;12.85;;;2.80;68.80;;;;;;5013455;28;20443;-45
2022/03/11 04:15:13;;;;;;;18.55;11.93;;;2.70;69.10;;;;;;5013172;28;20029;-45
2022/03/11 04:17:41;;;;;;;20.67;12.70;;;2.60;69.20;;;;;;5030433;28;20097;-44
2022/03/11 04:20:07;;;;;;;17.30;11.95;;;2.60;69.30;;;;;;5029849;28;20030;-44
2022/03/11 04:22:35;;;;;;;19.48;11.82;;;2.60;69.40;;;;;;5027468;28;20044;-44
2022/03/11 04:25:00;;;;;;;24.75;12.48;;;2.50;69.50;;;;;;4995544;28;20068;-45
2022/03/11 04:27:26;;;;;;;18.52;12.48;;;2.40;69.30;;;;;;5012776;28;20057;-47
2022/03/11 04:29:53;;;;;;;16.92;12.10;;;2.50;69.10;;;;;;5029887;28;20034;-45
2022/03/11 04:32:19;;;;;;;17.23;11.35;;;2.50;69.30;;;;;;5013194;28;20091;-44
2022/03/11 04:34:46;;;;;;;18.40;12.52;;;2.40;69.20;;;;;;5043663;28;20028;-44
2022/03/11 04:37:15;;;;;;;15.45;10.48;;;2.40;69.50;;;;;;5030617;28;20038;-44
2022/03/11 04:39:45;;;;;;;17.05;12.15;;;2.40;69.00;;;;;;5030428;28;20045;-45
2022/03/11 04:42:12;;;;;;;15.57;11.52;;;2.30;68.90;;;;;;5030469;28;20049;-44
2022/03/11 04:44:40;;;;;;;19.08;11.65;;;2.30;68.80;;;;;;5029854;28;20113;-45
2022/03/11 04:47:08;;;;;;;15.13;10.70;;;2.40;68.60;;;;;;5030311;28;20041;-44
2022/03/11 04:49:35;;;;;;;20.33;12.32;;;2.30;68.20;;;;;;5029168;28;20021;-43
2022/03/11 04:52:04;;;;;;;19.40;11.35;;;2.30;68.40;;;;;;5012527;28;20021;-44
2022/03/11 04:54:34;;;;;;;16.58;11.02;;;2.30;67.90;;;;;;5013550;28;20021;-44
2022/03/11 04:57:02;;;;;;;17.83;11.95;;;2.30;68.00;;;;;;5030004;28;20036;-45
2022/03/11 04:59:28;;;;;;;15.32;10.48;;;2.20;68.20;;;;;;5012442;28;20033;-44
2022/03/11 05:01:59;;;;;;;16.50;10.40;;;2.20;68.30;;;;;;5029875;28;20035;-45
2022/03/11 05:04:26;;;;;;;15.65;10.40;;;2.20;68.70;;;;;;5029360;28;20486;-43
2022/03/11 05:06:53;;;;;;;16.27;11.60;;;2.10;68.40;;;;;;5029977;28;20057;-44
2022/03/11 05:09:20;;;;;;;15.45;11.63;;;2.10;68.70;;;;;;5028516;28;20041;-45
2022/03/11 05:11:46;;;;;;;15.73;10.32;;;2.10;68.50;;;;;;5029054;28;20112;-44
2022/03/11 05:14:14;;;;;;;14.93;10.23;;;2.10;68.50;;;;;;5028694;28;20109;-44
2022/03/11 05:16:41;;;;;;;15.45;10.75;;;2.10;68.30;;;;;;5029724;28;20036;-44
2022/03/11 05:19:08;;;;;;;22.20;11.88;;;2.10;68.20;;;;;;5011354;28;20021;-43
2022/03/11 05:21:37;;;;;;;15.13;9.73;;;2.10;68.30;;;;;;5029187;28;20068;-45
2022/03/11 05:24:07;;;;;;;14.48;10.30;;;2.00;68.20;;;;;;5029615;28;20152;-43
2022/03/11 05:26:33;;;;;;;;;;;2.00;68.20;;;;;;5015195;28;20095;-44
2022/03/11 05:29:01;;;;;;;14.40;8.60;;;2.00;68.00;;;;;;5029575;28;19912;-48
2022/03/11 05:31:28;;;;;;;15.60;11.27;;;2.00;68.00;;;;;;5014333;28;20056;-46
2022/03/11 05:33:56;;;;;;;14.82;9.25;;;1.90;68.00;;;;;;5033462;28;20032;-44
2022/03/11 05:36:23;;;;;;;13.45;9.65;;;1.90;67.70;;;;;;5016440;28;20037;-43
2022/03/11 05:39:01;;;;;;;14.15;10.23;;;1.90;67.70;;;;;;5033236;28;20036;-43
2022/03/11 05:41:29;;;;;;;12.52;9.40;;;1.90;67.60;;;;;;5016324;28;20057;-43
2022/03/11 05:43:58;;;;;;;12.63;8.77;;;1.90;67.40;;;;;;5015968;28;20076;-43
2022/03/11 05:46:24;;;;;;;16.90;9.17;;;1.90;67.50;;;;;;5033347;28;20029;-44
2022/03/11 05:48:52;;;;;;;13.82;9.05;;;1.90;67.20;;;;;;5033640;28;20033;-43
2022/03/11 05:51:19;;;;;;;14.38;9.38;;;1.90;67.50;;;;;;5032756;28;20036;-43
2022/03/11 05:53:48;;;;;;;17.77;9.32;;;1.90;67.40;;;;;;5033148;28;20026;-45
2022/03/11 05:56:16;;;;;;;16.77;8.63;;;1.90;67.00;;;;;;5015879;28;20026;-46
2022/03/11 05:58:43;;;;;;;14.93;8.82;;;1.90;67.10;;;;;;5032863;28;20084;-47
2022/03/11 06:01:10;;;;;;;14.77;9.50;;;1.80;67.10;;;;;;4994777;28;20029;-44
2022/03/11 06:03:38;;;;;;;12.82;8.52;;;1.90;66.80;;;;;;5028325;28;20307;-47
2022/03/11 06:06:03;;;;;;;15.40;9.45;;;1.90;67.30;;;;;;5032455;28;20022;-46
2022/03/11 06:08:32;;;;;;;15.02;8.82;;;1.80;67.10;;;;;;5032410;28;20037;-44
2022/03/11 06:11:02;;;;;;;13.32;8.90;;;1.90;66.80;;;;;;5029495;28;20041;-43
2022/03/11 06:13:29;;;;;;;16.17;8.45;;;1.90;66.60;;;;;;5016680;28;20540;-44
2022/03/11 06:16:00;;;;;;;13.73;8.23;;;1.90;66.40;;;;;;5031794;28;20021;-47
2022/03/11 06:18:27;;;;;;;14.02;8.90;;;1.90;66.40;;;;;;5032451;28;20021;-50
2022/03/11 06:20:55;;;;;;;15.40;9.27;;;1.80;66.50;;;;;;5014563;28;20446;-43
2022/03/11 06:23:26;;;;;;;13.68;9.45;;;1.90;66.50;;;;;;5031549;28;20032;-45
2022/03/11 06:25:53;;;;;;;15.20;10.02;;;1.80;66.60;;;;;;5031517;28;20037;-43
2022/03/11 06:28:20;;;;;;;11.88;8.27;;;1.90;66.60;;;;;;5011540;28;20051;-43
2022/03/11 06:30:49;;;;;;;15.63;8.38;;;1.90;66.70;;;;;;5023928;28;20033;-46
2022/03/11 06:33:15;;;;;;;14.82;8.57;;;1.90;66.40;;;;;;5031038;28;20083;-46
2022/03/11 06:35:41;;;;;;;13.98;8.95;;;1.90;66.50;;;;;;5031320;28;20033;-46
2022/03/11 06:38:06;;;;;;;12.95;9.20;;;1.90;66.40;;;;;;5005834;28;20037;-43
2022/03/11 06:40:38;;;;;;;12.90;8.48;;;1.90;66.40;;;;;;5021550;28;20413;-44
2022/03/11 06:43:06;;;;;;;17.33;8.60;;;1.90;66.10;;;;;;5029973;28;20056;-46
2022/03/11 06:45:32;;;;;;;16.50;9.15;;;1.90;66.20;;;;;;5003679;28;20029;-46
2022/03/11 06:47:58;;;;;;;13.43;9.35;;;1.90;66.20;;;;;;5028067;28;20025;-43
2022/03/11 06:50:25;;;;;;;13.88;8.35;;;1.90;66.10;;;;;;4989442;28;20514;-43
2022/03/11 06:52:56;;;;;;;13.23;8.63;;;2.00;66.20;;;;;;5030466;28;20308;-44
2022/03/11 06:55:23;;;;;;;13.07;7.95;;;2.00;65.90;;;;;;5011623;28;20341;-44
2022/03/11 06:57:50;;;;;;;15.05;9.20;;;2.00;66.60;;;;;;5031819;28;20060;-45
2022/03/11 07:00:19;;;;;;;15.07;9.23;;;2.00;66.50;;;;;;5028546;28;20360;-45
2022/03/11 07:02:47;;;;;;;17.45;9.77;;;2.00;66.20;;;;;;5029077;28;20132;-44
2022/03/11 07:05:15;;;;;;;12.90;8.73;;;2.10;66.20;;;;;;5023222;28;20033;-45
2022/03/11 07:07:42;;;;;;;14.30;9.35;;;2.20;65.70;;;;;;5013079;28;20033;-44
2022/03/11 07:10:12;;;;;;;16.45;9.35;;;2.20;66.20;;;;;;5029524;28;20047;-45
2022/03/11 07:12:59;;;;;;;15.85;10.05;;;2.20;66.10;;;;;;5028612;28;20060;-44
2022/03/11 07:15:25;;;;;;;13.50;9.43;;;2.20;65.50;;;;;;5028757;28;20637;-45
2022/03/11 07:17:51;;;;;;;15.88;9.73;;;2.20;65.90;;;;;;5011607;28;20108;-43
2022/03/11 07:20:20;;;;;;;13.95;9.15;;;2.30;65.50;;;;;;5030142;28;20038;-45
2022/03/11 07:22:48;;;;;;;16.48;9.32;;;2.40;65.40;;;;;;5030994;28;20029;-43
2022/03/11 07:25:19;;;;;;;17.95;11.18;;;2.50;65.30;;;;;;5030112;28;20037;-45
2022/03/11 07:27:48;;;;;;;15.35;9.77;;;2.50;64.70;;;;;;5009266;28;20034;-45
2022/03/11 07:30:14;;;;;;;15.55;9.48;;;2.60;64.40;;;;;;5003906;28;20033;-44
2022/03/11 07:32:41;;;;;;;13.68;9.35;;;2.70;64.00;;;;;;5036290;28;20212;-45
2022/03/11 07:35:12;;;;;;;15.45;9.02;;;2.90;64.00;;;;;;5000761;28;20079;-46
2022/03/11 07:37:41;;;;;;;11.38;8.00;;;3.00;63.20;;;;;;5031572;28;20056;-47
2022/03/11 07:40:11;;;;;;;15.85;9.20;;;3.30;63.20;;;;;;5030520;28;20022;-47
2022/03/11 07:42:42;;;;;;;14.60;8.93;;;3.40;61.20;;;;;;4994509;28;20053;-46
2022/03/11 07:45:13;;;;;;;13.15;9.18;;;3.50;60.90;;;;;;5009670;28;20079;-43
2022/03/11 07:47:41;;;;;;;16.60;9.60;;;3.70;61.10;;;;;;5029859;28;20063;-44
2022/03/11 07:50:14;;;;;;;16.73;9.30;;;3.80;59.70;;;;;;5010965;28;20045;-48
2022/03/11 07:52:42;;;;;;;16.42;9.50;;;3.80;59.30;;;;;;5014561;28;20038;-46
2022/03/11 07:55:12;;;;;;;19.42;9.80;;;3.80;60.10;;;;;;5009482;28;20033;-44
2022/03/11 07:57:41;;;;;;;16.63;9.20;;;4.00;59.60;;;;;;4989171;28;20444;-47
2022/03/11 08:00:09;;;;;;;14.70;9.07;;;4.30;58.20;;;;;;5023532;28;20036;-44
2022/03/11 08:02:37;;;;;;;17.85;9.75;;;4.40;57.30;;;;;;5015438;28;20099;-44
2022/03/11 08:05:04;;;;;;;14.75;9.73;;;4.60;57.40;;;;;;5023510;28;20033;-43
2022/03/11 08:07:30;;;;;;;12.98;8.95;;;4.90;56.30;;;;;;5012172;28;20040;-44
2022/03/11 08:09:59;;;;;;;16.67;9.02;;;5.00;55.30;;;;;;5028250;28;20045;-43
2022/03/11 08:12:26;;;;;;;12.93;9.48;;;5.20;55.30;;;;;;5025851;28;20029;-44
2022/03/11 08:14:53;;;;;;;16.27;9.82;;;5.20;54.20;;;;;;5011623;28;20029;-46
2022/03/11 08:17:20;;;;;;;14.75;9.48;;;5.40;54.40;;;;;;5018504;28;20051;-45
2022/03/11 08:19:46;;;;;;;18.45;9.40;;;5.70;53.90;;;;;;5008642;28;20041;-51
2022/03/11 08:22:13;;;;;;;13.93;10.13;;;5.70;53.40;;;;;;5007279;28;20026;-46
2022/03/11 08:24:40;;;;;;;15.20;10.55;;;6.00;53.60;;;;;;5012443;28;20054;-46
2022/03/11 08:27:08;;;;;;;15.45;10.55;;;6.00;52.40;;;;;;5028519;28;20561;-45
2022/03/11 08:29:34;;;;;;;15.20;10.35;;;6.00;51.90;;;;;;5024221;28;20040;-46
2022/03/11 08:32:03;;;;;;;16.58;10.13;;;6.20;53.20;;;;;;5024273;28;20187;-48
2022/03/11 08:34:33;;;;;;;15.90;9.40;;;6.20;51.10;;;;;;5027786;28;20044;-44
2022/03/11 08:37:00;;;;;;;15.50;9.68;;;6.40;51.60;;;;;;5011283;28;20183;-47
2022/03/11 08:39:28;;;;;;;15.65;10.73;;;6.40;50.50;;;;;;5009407;28;20037;-45
2022/03/11 08:41:55;;;;;;;13.98;9.75;;;6.60;50.40;;;;;;5028658;28;20033;-44
2022/03/11 08:44:22;;;;;;;17.92;9.85;;;6.60;50.00;;;;;;5029195;28;20112;-43
2022/03/11 08:46:49;;;;;;;14.98;9.77;;;6.70;50.30;;;;;;5029605;28;20030;-45
2022/03/11 08:49:16;;;;;;;13.30;8.85;;;6.80;49.80;;;;;;5020020;28;20025;-48
2022/03/11 08:51:45;;;;;;;14.20;9.27;;;6.90;49.70;;;;;;5019383;28;20072;-46
2022/03/11 08:54:12;;;;;;;15.25;10.55;;;7.00;49.80;;;;;;5005428;28;20048;-51
2022/03/11 08:56:40;;;;;;;16.38;10.60;;;7.10;49.30;;;;;;5012547;28;20097;-45
2022/03/11 08:59:07;;;;;;;14.82;10.73;;;7.00;49.10;;;;;;5000491;28;20124;-48
2022/03/11 09:01:35;;;;;;;14.60;9.80;;;7.10;49.50;;;;;;5014728;28;20108;-44
2022/03/11 09:04:04;;;;;;;16.88;10.73;;;7.40;47.80;;;;;;5017011;28;20201;-44
2022/03/11 09:06:31;;;;;;;14.25;9.68;;;7.30;48.30;;;;;;4992539;28;20398;-46
2022/03/11 09:08:59;;;;;;;15.57;9.90;;;7.50;49.10;;;;;;5030226;28;20033;-47
2022/03/11 09:11:27;;;;;;;16.73;9.80;;;7.30;47.30;;;;;;5014516;28;20049;-44
2022/03/11 09:13:53;;;;;;;13.45;9.73;;;7.30;47.90;;;;;;5029155;28;20021;-48
2022/03/11 09:16:20;;;;;;;15.55;9.73;;;7.50;46.90;;;;;;5028006;28;20399;-43
2022/03/11 09:18:47;;;;;;;13.07;10.32;;;7.60;47.20;;;;;;5028778;28;20130;-47
2022/03/11 09:21:16;;;;;;;14.48;9.05;;;7.70;48.30;;;;;;5028151;28;20164;-44
2022/03/11 09:23:43;;;;;;;16.33;9.40;;;7.80;47.50;;;;;;5027849;28;20101;-44
2022/03/11 09:26:09;;;;;;;14.82;9.93;;;7.70;46.00;;;;;;5019321;28;20045;-45
2022/03/11 09:28:35;;;;;;;15.02;9.40;;;7.60;46.40;;;;;;5028198;28;20037;-44
2022/03/11 09:31:08;;;;;;;14.90;9.63;;;7.70;45.90;;;;;;5010526;28;20018;-45
2022/03/11 09:33:38;;;;;;;16.38;9.80;;;7.70;47.80;;;;;;5028210;28;20034;-45
2022/03/11 09:36:07;;;;;;;14.18;10.52;;;7.80;47.50;;;;;;4998213;28;20107;-46
2022/03/11 09:38:39;;;;;;;14.40;9.30;;;8.10;46.00;;;;;;5028809;28;20044;-44
2022/03/11 09:41:07;;;;;;;14.52;9.50;;;8.10;44.80;;;;;;5023472;28;20049;-46
2022/03/11 09:43:35;;;;;;;12.80;9.57;;;8.30;44.40;;;;;;5028559;28;20331;-48
2022/03/11 09:46:11;;;;;;;13.45;9.07;;;8.30;46.10;;;;;;5011423;28;20038;-45
2022/03/11 09:48:38;;;;;;;15.57;9.05;;;8.50;45.60;;;;;;5025232;28;20033;-45
2022/03/11 09:51:04;;;;;;;15.05;9.68;;;8.60;44.30;;;;;;5020137;28;20035;-44
2022/03/11 09:53:32;;;;;;;13.07;8.93;;;8.40;43.60;;;;;;5005362;28;20032;-47
2022/03/11 09:55:58;;;;;;;14.10;9.20;;;8.20;43.80;;;;;;5011299;28;20036;-48
2022/03/11 09:58:28;;;;;;;15.32;10.50;;;8.00;42.40;;;;;;5009686;28;20029;-44
2022/03/11 10:00:56;;;;;;;15.07;9.80;;;8.00;44.90;;;;;;5008643;28;20112;-44
2022/03/11 10:03:23;;;;;;;11.73;9.20;;;8.10;43.90;;;;;;5022341;28;20036;-48
2022/03/11 10:06:09;;;;;;;12.60;8.23;;;8.10;43.00;;;;;;5024303;28;20587;-44
2022/03/11 10:08:44;;;;;;;15.15;9.10;;;8.00;42.60;;;;;;5020562;28;20049;-45
2022/03/11 10:11:41;;;;;;;13.13;8.25;;;8.10;43.20;;;;;;5004692;28;20446;-45
2022/03/11 10:14:10;;;;;;;15.68;9.55;;;8.20;43.30;;;;;;5004688;28;20100;-47
2022/03/11 10:16:37;;;;;;;14.73;9.00;;;8.00;42.20;;;;;;5028772;28;20030;-44
2022/03/11 10:19:21;;;;;;;13.95;9.38;;;7.90;43.20;;;;;;5014473;28;20018;-45
2022/03/11 10:21:50;;;;;;;16.95;9.27;;;8.20;43.50;;;;;;5032191;28;20021;-46
2022/03/11 10:24:23;;;;;;;13.75;8.30;;;8.50;43.10;;;;;;5014895;28;20029;-46
2022/03/11 10:26:55;;;;;;;13.10;8.13;;;8.20;41.40;;;;;;5032391;28;20116;-46
2022/03/11 10:29:22;;;;;;;13.00;8.35;;;8.20;42.10;;;;;;5017143;28;20061;-46
2022/03/11 10:31:53;;;;;;;13.82;9.73;;;8.30;41.00;;;;;;5011697;28;20029;-43
2022/03/11 10:34:42;;;;;;;18.23;9.43;;;8.40;41.50;;;;;;5031368;28;20053;-43
2022/03/11 10:37:12;;;;;;;13.18;8.48;;;8.50;42.70;;;;;;5014229;28;20040;-44
2022/03/11 10:39:56;;;;;;;13.05;8.85;;;8.60;41.70;;;;;;5030026;28;20042;-44
2022/03/11 10:42:41;;;;;;;13.70;9.30;;;8.60;41.30;;;;;;5026830;28;20144;-47
2022/03/11 10:45:11;;;;;;;11.43;7.70;;;8.80;41.40;;;;;;5030446;28;20040;-48
2022/03/11 10:47:41;;;;;;;11.48;8.55;;;8.90;41.10;;;;;;5009035;28;20030;-43
2022/03/11 10:50:27;;;;;;;13.27;8.70;;;9.00;41.80;;;;;;5007680;28;20390;-47
2022/03/11 10:52:56;;;;;;;15.13;9.07;;;9.00;39.50;;;;;;5024273;28;20451;-49
2022/03/11 10:55:32;;;;;;;10.63;7.70;;;8.80;40.40;;;;;;5025763;28;20041;-46
2022/03/11 10:58:16;;;;;;;15.17;8.57;;;8.90;41.10;;;;;;5028786;28;20596;-44
2022/03/11 11:00:43;;;;;;;12.02;7.32;;;8.90;40.10;;;;;;5013676;28;20299;-50
2022/03/11 11:03:14;;;;;;;12.90;8.15;;;8.90;39.80;;;;;;5030956;28;20450;-48
2022/03/11 11:05:41;;;;;;;13.30;8.30;;;9.10;38.80;;;;;;5030309;28;20029;-43
2022/03/11 11:08:09;;;;;;;11.13;7.80;;;9.20;39.90;;;;;;5027564;28;20502;-45
2022/03/11 11:10:41;;;;;;;11.82;8.10;;;9.20;39.60;;;;;;5024501;28;20513;-46
2022/03/11 11:13:09;;;;;;;9.98;7.50;;;9.30;39.40;;;;;;5001848;28;20115;-46
2022/03/11 11:15:42;;;;;;;10.85;7.68;;;9.30;40.40;;;;;;5029563;28;20080;-45
2022/03/11 11:18:12;;;;;;;8.57;6.28;;;9.50;39.30;;;;;;5013931;28;20087;-46
2022/03/11 11:20:51;;;;;;;10.77;7.50;;;9.40;37.50;;;;;;5030366;28;20129;-45
2022/03/11 11:23:30;;;;;;;12.07;7.28;;;9.20;37.80;;;;;;4980782;28;20041;-43
2022/03/11 11:26:00;;;;;;;9.65;6.72;;;9.00;38.20;;;;;;5030709;28;20029;-44
2022/03/11 11:28:31;;;;;;;11.02;7.85;;;9.00;37.80;;;;;;5011258;28;20120;-48
2022/03/11 11:31:00;;;;;;;12.75;7.72;;;9.10;38.60;;;;;;5007316;28;20407;-46
2022/03/11 11:33:28;;;;;;;12.25;7.15;;;9.30;39.00;;;;;;5025202;28;20071;-44
2022/03/11 11:36:02;;;;;;;10.85;7.05;;;9.30;37.50;;;;;;5025818;28;20014;-51
2022/03/11 11:38:35;;;;;;;9.40;6.90;;;9.40;38.10;;;;;;5012331;28;20033;-46
2022/03/11 11:41:21;;;;;;;11.30;6.75;;;9.40;38.10;;;;;;5011824;28;20021;-47
2022/03/11 11:44:02;;;;;;;9.25;6.45;;;9.40;37.50;;;;;;5021650;28;20057;-44
2022/03/11 11:46:31;;;;;;;12.57;6.93;;;9.60;39.20;;;;;;4994150;28;20113;-45
2022/03/11 11:49:22;;;;;;;10.77;7.22;;;9.80;37.80;;;;;;4986858;28;20041;-48
2022/03/11 11:52:11;;;;;;;11.23;6.97;;;9.70;37.00;;;;;;5018887;28;20032;-44
2022/03/11 11:54:41;;;;;;;10.38;6.82;;;9.70;36.70;;;;;;5027813;28;20029;-43
2022/03/11 11:57:15;;;;;;;13.80;7.00;;;9.80;36.90;;;;;;5006322;28;20530;-46
2022/03/11 11:59:43;;;;;;;11.85;6.97;;;9.70;36.60;;;;;;5021193;28;20034;-46
2022/03/11 12:02:31;;;;;;;9.75;7.13;;;9.40;35.50;;;;;;5019795;28;20061;-48
2022/03/11 12:05:00;;;;;;;10.05;7.50;;;9.50;36.40;;;;;;5016158;28;20072;-50
2022/03/11 12:07:46;;;;;;;11.93;6.72;;;9.60;36.00;;;;;;5019852;28;20033;-44
2022/03/11 12:10:26;;;;;;;8.82;6.47;;;9.60;36.00;;;;;;5001097;28;20546;-45
2022/03/11 12:13:00;;;;;;;10.93;6.68;;;9.70;36.20;;;;;;5007346;28;20372;-45
2022/03/11 12:15:27;;;;;;;9.45;6.80;;;9.60;36.00;;;;;;5001386;28;20360;-45
2022/03/11 12:18:00;;;;;;;12.88;7.55;;;9.40;35.40;;;;;;4999364;28;20034;-45
2022/03/11 12:20:49;;;;;;;9.18;5.97;;;9.80;36.60;;;;;;5020796;28;20029;-43
2022/03/11 12:23:15;;;;;;;10.25;5.90;;;9.80;35.30;;;;;;5017496;28;20030;-45
2022/03/11 12:25:45;;;;;;;11.48;6.68;;;9.90;35.40;;;;;;5024942;28;20044;-44
2022/03/11 12:28:31;;;;;;;10.50;6.82;;;9.90;35.90;;;;;;5018740;28;20373;-44
2022/03/11 12:31:17;;;;;;;10.40;6.38;;;9.90;35.90;;;;;;5017813;28;20444;-44
2022/03/11 12:33:51;;;;;;;10.05;6.20;;;10.00;36.40;;;;;;4984418;28;20487;-48
2022/03/11 12:36:24;;;;;;;11.40;5.93;;;9.90;35.20;;;;;;5022577;28;20056;-45
2022/03/11 12:38:51;;;;;;;8.70;5.55;;;9.90;36.50;;;;;;5019824;28;20048;-45
2022/03/11 12:41:45;;;;;;;14.80;6.63;;;9.90;37.60;;;;;;4991858;28;20116;-44
2022/03/11 12:44:13;;;;;;;12.15;5.75;;;9.90;35.00;;;;;;5024192;28;20399;-45
2022/03/11 12:46:41;;;;;;;9.68;5.50;;;9.80;35.60;;;;;;5026846;28;20109;-44
2022/03/11 12:49:08;;;;;;;8.18;5.65;;;9.80;35.60;;;;;;5005643;28;20791;-45
2022/03/11 12:51:44;;;;;;;8.65;6.47;;;9.70;35.00;;;;;;5006675;28;20022;-44
2022/03/11 12:54:18;;;;;;;8.50;5.47;;;9.70;35.00;;;;;;5020228;28;20030;-44